WZZ89TS LHBP-LYPG
Flight info
| Callsign | WZZ89TS |
|---|---|
| Flight time | 1h 0m |
| Altitude | 37000 |
| Route | FAHAZ DCT KEROP DCT TADAM DCT MOJ |
| Aircraft | A321/M-SDE1E2E3GIJ1J4RWXY/LB1 |
Departure
| Time | 2026-05-08 18:40 |
|---|---|
| Airport | Budapest Liszt Ferenc International Airport (LHBP) |
Arrival
| Time | 2026-05-08 19:40 |
|---|---|
| Airport | Podgorica Airport / Podgorica Golubovci Airbase (LYPG) |
| Time | Latitude | Longitude | Altitude | Speed | Heading |
|---|---|---|---|---|---|
| 2026-05-08 17:41 | 47.43390 | 19.25601 | 458 ft | 0 kts | 312° |
| 2026-05-08 18:29 | 47.43382 | 19.25614 | 457 ft | 4 kts | 319° |
| 2026-05-08 18:29 | 47.43360 | 19.25633 | 455 ft | 4 kts | 358° |
| 2026-05-08 18:30 | 47.43339 | 19.25624 | 454 ft | 1 kts | 42° |
| 2026-05-08 18:30 | 47.43339 | 19.25623 | 454 ft | 0 kts | 42° |
| 2026-05-08 18:35 | 47.43342 | 19.25628 | 454 ft | 2 kts | 42° |
| 2026-05-08 18:35 | 47.43378 | 19.25675 | 457 ft | 8 kts | 42° |
| 2026-05-08 18:35 | 47.43403 | 19.25710 | 457 ft | 7 kts | 41° |
| 2026-05-08 18:35 | 47.43441 | 19.25759 | 457 ft | 7 kts | 42° |
| 2026-05-08 18:36 | 47.43487 | 19.25796 | 457 ft | 7 kts | 343° |
| 2026-05-08 18:36 | 47.43532 | 19.25733 | 457 ft | 10 kts | 312° |
| 2026-05-08 18:36 | 47.43539 | 19.25655 | 457 ft | 8 kts | 231° |
| 2026-05-08 18:36 | 47.43493 | 19.25587 | 457 ft | 10 kts | 222° |
| 2026-05-08 18:37 | 47.43434 | 19.25509 | 457 ft | 12 kts | 222° |
| 2026-05-08 18:37 | 47.43365 | 19.25417 | 457 ft | 14 kts | 222° |
| 2026-05-08 18:37 | 47.43287 | 19.25312 | 457 ft | 16 kts | 222° |
| 2026-05-08 18:37 | 47.43200 | 19.25194 | 457 ft | 17 kts | 222° |
| 2026-05-08 18:38 | 47.43154 | 19.25133 | 456 ft | 3 kts | 222° |
| 2026-05-08 18:38 | 47.43145 | 19.25122 | 457 ft | 2 kts | 222° |
| 2026-05-08 18:38 | 47.43129 | 19.25100 | 457 ft | 5 kts | 222° |
| 2026-05-08 18:38 | 47.43094 | 19.25053 | 457 ft | 9 kts | 222° |
| 2026-05-08 18:39 | 47.43066 | 19.25003 | 457 ft | 3 kts | 270° |
| 2026-05-08 18:39 | 47.43079 | 19.24974 | 457 ft | 4 kts | 315° |
| 2026-05-08 18:39 | 47.43112 | 19.24921 | 457 ft | 15 kts | 312° |
| 2026-05-08 18:39 | 47.43346 | 19.24543 | 453 ft | 91 kts | 312° |
| 2026-05-08 18:40 | 47.43939 | 19.23591 | 463 ft | 157 kts | 313° |
| 2026-05-08 18:40 | 47.44742 | 19.22303 | 976 ft | 171 kts | 313° |
| 2026-05-08 18:40 | 47.45536 | 19.21022 | 1843 ft | 169 kts | 313° |
| 2026-05-08 18:40 | 47.46377 | 19.19663 | 2196 ft | 190 kts | 313° |
| 2026-05-08 18:41 | 47.47306 | 19.18165 | 2605 ft | 205 kts | 313° |
| 2026-05-08 18:41 | 47.48298 | 19.16499 | 2890 ft | 229 kts | 305° |
| 2026-05-08 18:41 | 47.48890 | 19.14188 | 3255 ft | 255 kts | 277° |
| 2026-05-08 18:41 | 47.48684 | 19.11535 | 3928 ft | 267 kts | 250° |
| 2026-05-08 18:42 | 47.47673 | 19.09236 | 4822 ft | 272 kts | 224° |
| 2026-05-08 18:42 | 47.46063 | 19.07723 | 5611 ft | 276 kts | 205° |
| 2026-05-08 18:42 | 47.44338 | 19.06497 | 6577 ft | 277 kts | 205° |
| 2026-05-08 18:42 | 47.42570 | 19.05283 | 7213 ft | 281 kts | 205° |
| 2026-05-08 18:43 | 47.40805 | 19.04063 | 8129 ft | 281 kts | 206° |
| 2026-05-08 18:43 | 47.39036 | 19.02809 | 9016 ft | 283 kts | 207° |
| 2026-05-08 18:43 | 47.37264 | 19.01531 | 9871 ft | 286 kts | 207° |
| 2026-05-08 18:43 | 47.35443 | 19.00204 | 10401 ft | 301 kts | 207° |
| 2026-05-08 18:44 | 47.33496 | 18.98779 | 10655 ft | 323 kts | 207° |
| 2026-05-08 18:44 | 47.31434 | 18.97309 | 11210 ft | 333 kts | 206° |
| 2026-05-08 18:44 | 47.29326 | 18.95854 | 11969 ft | 336 kts | 206° |
| 2026-05-08 18:44 | 47.27221 | 18.94424 | 12756 ft | 338 kts | 205° |
| 2026-05-08 18:45 | 47.25077 | 18.92976 | 13564 ft | 340 kts | 205° |
| 2026-05-08 18:45 | 47.22921 | 18.91516 | 14288 ft | 342 kts | 206° |
| 2026-05-08 18:45 | 47.20750 | 18.90043 | 14946 ft | 346 kts | 206° |
| 2026-05-08 18:45 | 47.18555 | 18.88551 | 15603 ft | 350 kts | 206° |
| 2026-05-08 18:46 | 47.16331 | 18.87037 | 16264 ft | 353 kts | 206° |
| 2026-05-08 18:46 | 47.14057 | 18.85615 | 16912 ft | 359 kts | 199° |
| 2026-05-08 18:46 | 47.11586 | 18.84936 | 17531 ft | 365 kts | 184° |
| 2026-05-08 18:46 | 47.09035 | 18.85212 | 18151 ft | 373 kts | 169° |
| 2026-05-08 18:47 | 47.06575 | 18.86491 | 18693 ft | 380 kts | 154° |
| 2026-05-08 18:47 | 47.04350 | 18.88642 | 19247 ft | 385 kts | 146° |
| 2026-05-08 18:47 | 47.02170 | 18.90949 | 19841 ft | 388 kts | 146° |
| 2026-05-08 18:47 | 46.99969 | 18.93255 | 20444 ft | 390 kts | 146° |
| 2026-05-08 18:48 | 46.97755 | 18.95567 | 21036 ft | 393 kts | 146° |
| 2026-05-08 18:48 | 46.95524 | 18.97899 | 21638 ft | 395 kts | 146° |
| 2026-05-08 18:48 | 46.93279 | 19.00247 | 22228 ft | 398 kts | 146° |
| 2026-05-08 18:48 | 46.91014 | 19.02612 | 22808 ft | 401 kts | 146° |
| 2026-05-08 18:49 | 46.88730 | 19.04991 | 23376 ft | 404 kts | 147° |
| 2026-05-08 18:49 | 46.86403 | 19.07311 | 23873 ft | 406 kts | 148° |
| 2026-05-08 18:49 | 46.84022 | 19.09556 | 24294 ft | 409 kts | 150° |
| 2026-05-08 18:49 | 46.81599 | 19.11768 | 24711 ft | 412 kts | 150° |
| 2026-05-08 18:50 | 46.79158 | 19.13974 | 25172 ft | 414 kts | 150° |
| 2026-05-08 18:50 | 46.76706 | 19.16197 | 25608 ft | 416 kts | 150° |
| 2026-05-08 18:50 | 46.74247 | 19.18450 | 26023 ft | 419 kts | 150° |
| 2026-05-08 18:50 | 46.71783 | 19.20727 | 26449 ft | 421 kts | 150° |
| 2026-05-08 18:51 | 46.69300 | 19.23030 | 26864 ft | 424 kts | 150° |
| 2026-05-08 18:51 | 46.66808 | 19.25350 | 27268 ft | 427 kts | 150° |
| 2026-05-08 18:51 | 46.64295 | 19.27690 | 27678 ft | 429 kts | 150° |
| 2026-05-08 18:51 | 46.61807 | 19.29999 | 28069 ft | 432 kts | 151° |
| 2026-05-08 18:52 | 46.59264 | 19.32353 | 28465 ft | 434 kts | 151° |
| 2026-05-08 18:52 | 46.56702 | 19.34714 | 28844 ft | 437 kts | 151° |
| 2026-05-08 18:52 | 46.54126 | 19.37083 | 29245 ft | 439 kts | 150° |
| 2026-05-08 18:52 | 46.51540 | 19.39460 | 29643 ft | 442 kts | 150° |
| 2026-05-08 18:53 | 46.48933 | 19.41855 | 30012 ft | 444 kts | 150° |
| 2026-05-08 18:53 | 46.46319 | 19.44252 | 30340 ft | 447 kts | 150° |
| 2026-05-08 18:53 | 46.43685 | 19.46665 | 30659 ft | 449 kts | 151° |
| 2026-05-08 18:53 | 46.41031 | 19.49092 | 30986 ft | 451 kts | 151° |
| 2026-05-08 18:54 | 46.38372 | 19.51526 | 31307 ft | 454 kts | 151° |
| 2026-05-08 18:54 | 46.35692 | 19.53975 | 31669 ft | 455 kts | 151° |
| 2026-05-08 18:54 | 46.33019 | 19.56414 | 32133 ft | 454 kts | 152° |
| 2026-05-08 18:54 | 46.30353 | 19.58848 | 32553 ft | 453 kts | 152° |
| 2026-05-08 18:55 | 46.25020 | 19.63694 | 33424 ft | 452 kts | 152° |
| 2026-05-08 18:55 | 46.22310 | 19.65974 | 33855 ft | 448 kts | 159° |
| 2026-05-08 18:55 | 46.19437 | 19.67611 | 34245 ft | 441 kts | 168° |
| 2026-05-08 18:56 | 46.16464 | 19.68544 | 34588 ft | 435 kts | 177° |
| 2026-05-08 18:56 | 46.13458 | 19.68772 | 34918 ft | 430 kts | 186° |
| 2026-05-08 18:56 | 46.10485 | 19.68369 | 35248 ft | 428 kts | 190° |
| 2026-05-08 18:56 | 46.07523 | 19.67872 | 35565 ft | 429 kts | 190° |
| 2026-05-08 18:57 | 46.04557 | 19.67386 | 35893 ft | 429 kts | 190° |
| 2026-05-08 18:57 | 46.02587 | 19.67068 | 36104 ft | 430 kts | 189° |
| 2026-05-08 18:57 | 45.98615 | 19.66430 | 36526 ft | 430 kts | 189° |
| 2026-05-08 18:57 | 45.95639 | 19.65953 | 36833 ft | 430 kts | 189° |
| 2026-05-08 18:58 | 45.92658 | 19.65473 | 36996 ft | 431 kts | 189° |
| 2026-05-08 18:58 | 45.86711 | 19.64512 | 37022 ft | 429 kts | 189° |
| 2026-05-08 18:59 | 45.80811 | 19.63552 | 37027 ft | 429 kts | 189° |
| 2026-05-08 18:59 | 45.74873 | 19.62592 | 37024 ft | 429 kts | 189° |
| 2026-05-08 19:00 | 45.69935 | 19.61802 | 37023 ft | 429 kts | 189° |
| 2026-05-08 19:00 | 45.62990 | 19.60700 | 37021 ft | 430 kts | 189° |
| 2026-05-08 19:01 | 45.57079 | 19.59752 | 37034 ft | 430 kts | 189° |
| 2026-05-08 19:01 | 45.51124 | 19.58792 | 37037 ft | 430 kts | 189° |
| 2026-05-08 19:02 | 45.45171 | 19.57843 | 37032 ft | 431 kts | 189° |
| 2026-05-08 19:02 | 45.39214 | 19.56899 | 37036 ft | 431 kts | 189° |
| 2026-05-08 19:03 | 45.33249 | 19.55953 | 37038 ft | 431 kts | 189° |
| 2026-05-08 19:03 | 45.27287 | 19.55013 | 37043 ft | 431 kts | 189° |
| 2026-05-08 19:04 | 45.21279 | 19.54644 | 37037 ft | 434 kts | 182° |
| 2026-05-08 19:04 | 45.15243 | 19.54730 | 37038 ft | 434 kts | 182° |
| 2026-05-08 19:05 | 45.09210 | 19.54810 | 37025 ft | 433 kts | 182° |
| 2026-05-08 19:05 | 45.03177 | 19.54886 | 37025 ft | 433 kts | 182° |
| 2026-05-08 19:06 | 44.97144 | 19.54959 | 37029 ft | 433 kts | 182° |
| 2026-05-08 19:06 | 44.91111 | 19.55043 | 37028 ft | 433 kts | 182° |
| 2026-05-08 19:07 | 44.85077 | 19.55133 | 37025 ft | 434 kts | 182° |
| 2026-05-08 19:07 | 44.79047 | 19.55214 | 37029 ft | 434 kts | 182° |
| 2026-05-08 19:08 | 44.73035 | 19.55280 | 37035 ft | 434 kts | 182° |
| 2026-05-08 19:08 | 44.66983 | 19.55355 | 37035 ft | 434 kts | 182° |
| 2026-05-08 19:09 | 44.60937 | 19.55437 | 37025 ft | 435 kts | 182° |
| 2026-05-08 19:09 | 44.54885 | 19.55525 | 37022 ft | 435 kts | 182° |
| 2026-05-08 19:10 | 44.48820 | 19.55604 | 37031 ft | 436 kts | 182° |
| 2026-05-08 19:10 | 44.42753 | 19.55685 | 37038 ft | 436 kts | 182° |
| 2026-05-08 19:11 | 44.36680 | 19.55760 | 36806 ft | 436 kts | 182° |
| 2026-05-08 19:11 | 44.33641 | 19.55799 | 36544 ft | 436 kts | 182° |
| 2026-05-08 19:11 | 44.30611 | 19.55833 | 36284 ft | 435 kts | 182° |
| 2026-05-08 19:11 | 44.27581 | 19.55863 | 36031 ft | 434 kts | 182° |
| 2026-05-08 19:12 | 44.24600 | 19.55897 | 35775 ft | 434 kts | 182° |
| 2026-05-08 19:12 | 44.21548 | 19.55941 | 35525 ft | 434 kts | 182° |
| 2026-05-08 19:12 | 44.19549 | 19.55971 | 35357 ft | 433 kts | 182° |
| 2026-05-08 19:12 | 44.16538 | 19.56015 | 35120 ft | 433 kts | 182° |
| 2026-05-08 19:13 | 44.12551 | 19.56070 | 34798 ft | 430 kts | 182° |
| 2026-05-08 19:13 | 44.09560 | 19.56108 | 34556 ft | 428 kts | 182° |
| 2026-05-08 19:13 | 44.06600 | 19.56147 | 34252 ft | 424 kts | 181° |
| 2026-05-08 19:13 | 44.03656 | 19.56184 | 33737 ft | 422 kts | 181° |
| 2026-05-08 19:14 | 44.01678 | 19.56206 | 33412 ft | 419 kts | 181° |
| 2026-05-08 19:14 | 43.98776 | 19.56241 | 32940 ft | 415 kts | 181° |
| 2026-05-08 19:14 | 43.95903 | 19.56277 | 32477 ft | 411 kts | 181° |
| 2026-05-08 19:14 | 43.93059 | 19.56314 | 32001 ft | 407 kts | 181° |
| 2026-05-08 19:15 | 43.90236 | 19.56351 | 31544 ft | 404 kts | 181° |
| 2026-05-08 19:15 | 43.87428 | 19.56387 | 31080 ft | 401 kts | 181° |
| 2026-05-08 19:15 | 43.84644 | 19.56421 | 30629 ft | 399 kts | 182° |
| 2026-05-08 19:15 | 43.81875 | 19.56456 | 30168 ft | 396 kts | 182° |
| 2026-05-08 19:16 | 43.79164 | 19.56489 | 29682 ft | 394 kts | 181° |
| 2026-05-08 19:16 | 43.76437 | 19.56526 | 29246 ft | 390 kts | 181° |
| 2026-05-08 19:16 | 43.73737 | 19.56562 | 28808 ft | 386 kts | 181° |
| 2026-05-08 19:16 | 43.71058 | 19.56600 | 28387 ft | 384 kts | 181° |
| 2026-05-08 19:17 | 43.68395 | 19.56637 | 27968 ft | 381 kts | 181° |
| 2026-05-08 19:17 | 43.65749 | 19.56672 | 27567 ft | 379 kts | 181° |
| 2026-05-08 19:17 | 43.63128 | 19.56704 | 27158 ft | 376 kts | 181° |
| 2026-05-08 19:17 | 43.60520 | 19.56735 | 26776 ft | 372 kts | 181° |
| 2026-05-08 19:18 | 43.57939 | 19.56765 | 26377 ft | 369 kts | 181° |
| 2026-05-08 19:18 | 43.55383 | 19.56791 | 25997 ft | 366 kts | 181° |
| 2026-05-08 19:18 | 43.52840 | 19.56820 | 25607 ft | 364 kts | 181° |
| 2026-05-08 19:18 | 43.50321 | 19.56852 | 25230 ft | 361 kts | 181° |
| 2026-05-08 19:19 | 43.47818 | 19.56887 | 24832 ft | 358 kts | 181° |
| 2026-05-08 19:19 | 43.45334 | 19.56920 | 24443 ft | 355 kts | 181° |
| 2026-05-08 19:19 | 43.42872 | 19.56953 | 24058 ft | 353 kts | 181° |
| 2026-05-08 19:19 | 43.40425 | 19.56985 | 23659 ft | 351 kts | 181° |
| 2026-05-08 19:20 | 43.37986 | 19.57016 | 23213 ft | 349 kts | 181° |
| 2026-05-08 19:20 | 43.36384 | 19.57037 | 22941 ft | 347 kts | 181° |
| 2026-05-08 19:20 | 43.33167 | 19.57071 | 22400 ft | 343 kts | 181° |
| 2026-05-08 19:20 | 43.30793 | 19.57098 | 21998 ft | 341 kts | 181° |
| 2026-05-08 19:21 | 43.28431 | 19.57125 | 21593 ft | 338 kts | 181° |
| 2026-05-08 19:21 | 43.26115 | 19.57155 | 21195 ft | 336 kts | 181° |
| 2026-05-08 19:21 | 43.23787 | 19.57186 | 20789 ft | 334 kts | 181° |
| 2026-05-08 19:21 | 43.21467 | 19.57215 | 20380 ft | 333 kts | 181° |
| 2026-05-08 19:22 | 43.19157 | 19.57243 | 19975 ft | 331 kts | 180° |
| 2026-05-08 19:22 | 43.16856 | 19.57271 | 19567 ft | 330 kts | 180° |
| 2026-05-08 19:22 | 43.14566 | 19.57300 | 19171 ft | 329 kts | 180° |
| 2026-05-08 19:22 | 43.12275 | 19.57330 | 18763 ft | 328 kts | 180° |
| 2026-05-08 19:23 | 43.09995 | 19.57358 | 18360 ft | 328 kts | 180° |
| 2026-05-08 19:23 | 43.07719 | 19.57388 | 17915 ft | 327 kts | 180° |
| 2026-05-08 19:23 | 43.05452 | 19.57416 | 17510 ft | 324 kts | 180° |
| 2026-05-08 19:23 | 43.03206 | 19.57444 | 17113 ft | 322 kts | 179° |
| 2026-05-08 19:24 | 43.00977 | 19.57471 | 16708 ft | 320 kts | 179° |
| 2026-05-08 19:24 | 42.98755 | 19.57496 | 16310 ft | 318 kts | 179° |
| 2026-05-08 19:24 | 42.96547 | 19.57520 | 15899 ft | 317 kts | 179° |
| 2026-05-08 19:24 | 42.94365 | 19.57217 | 15513 ft | 316 kts | 191° |
| 2026-05-08 19:25 | 42.92277 | 19.56292 | 15111 ft | 316 kts | 202° |
| 2026-05-08 19:25 | 42.90262 | 19.55114 | 14714 ft | 315 kts | 203° |
| 2026-05-08 19:25 | 42.88252 | 19.53948 | 14319 ft | 314 kts | 203° |
| 2026-05-08 19:25 | 42.86247 | 19.52786 | 13915 ft | 313 kts | 203° |
| 2026-05-08 19:26 | 42.84241 | 19.51625 | 13483 ft | 312 kts | 202° |
| 2026-05-08 19:26 | 42.82249 | 19.50473 | 13067 ft | 310 kts | 202° |
| 2026-05-08 19:26 | 42.80273 | 19.49329 | 12685 ft | 307 kts | 202° |
| 2026-05-08 19:26 | 42.78313 | 19.48194 | 12298 ft | 305 kts | 201° |
| 2026-05-08 19:27 | 42.76369 | 19.47074 | 11897 ft | 303 kts | 201° |
| 2026-05-08 19:27 | 42.74435 | 19.45965 | 11515 ft | 301 kts | 201° |
| 2026-05-08 19:27 | 42.72506 | 19.44861 | 11145 ft | 300 kts | 201° |
| 2026-05-08 19:27 | 42.70583 | 19.43762 | 10741 ft | 299 kts | 201° |
| 2026-05-08 19:28 | 42.68666 | 19.42662 | 10338 ft | 298 kts | 201° |
| 2026-05-08 19:28 | 42.66761 | 19.41567 | 10111 ft | 293 kts | 201° |
| 2026-05-08 19:28 | 42.64912 | 19.40502 | 9995 ft | 294 kts | 201° |
| 2026-05-08 19:28 | 42.63054 | 19.39432 | 9887 ft | 284 kts | 201° |
| 2026-05-08 19:29 | 42.61248 | 19.38392 | 9501 ft | 275 kts | 201° |
| 2026-05-08 19:29 | 42.59520 | 19.37401 | 9015 ft | 272 kts | 201° |
| 2026-05-08 19:29 | 42.57782 | 19.36408 | 8547 ft | 269 kts | 201° |
| 2026-05-08 19:29 | 42.56090 | 19.35441 | 8141 ft | 259 kts | 201° |
| 2026-05-08 19:30 | 42.54449 | 19.34500 | 7578 ft | 253 kts | 202° |
| 2026-05-08 19:30 | 42.52818 | 19.33723 | 7187 ft | 248 kts | 191° |
| 2026-05-08 19:30 | 42.51089 | 19.33444 | 6822 ft | 251 kts | 183° |
| 2026-05-08 19:30 | 42.49348 | 19.33272 | 6521 ft | 249 kts | 183° |
| 2026-05-08 19:31 | 42.47613 | 19.33092 | 6174 ft | 249 kts | 184° |
| 2026-05-08 19:31 | 42.45892 | 19.32914 | 5808 ft | 250 kts | 184° |
| 2026-05-08 19:31 | 42.44175 | 19.32737 | 5501 ft | 244 kts | 184° |
| 2026-05-08 19:31 | 42.42483 | 19.32563 | 5025 ft | 243 kts | 184° |
| 2026-05-08 19:32 | 42.40812 | 19.32392 | 4632 ft | 239 kts | 184° |
| 2026-05-08 19:32 | 42.39168 | 19.32223 | 4274 ft | 236 kts | 184° |
| 2026-05-08 19:32 | 42.37540 | 19.32056 | 3935 ft | 233 kts | 184° |
| 2026-05-08 19:32 | 42.35966 | 19.31896 | 3863 ft | 224 kts | 183° |
| 2026-05-08 19:33 | 42.34450 | 19.31739 | 3805 ft | 212 kts | 183° |
| 2026-05-08 19:33 | 42.33000 | 19.31587 | 3610 ft | 208 kts | 184° |
| 2026-05-08 19:33 | 42.31559 | 19.31436 | 3283 ft | 207 kts | 184° |
| 2026-05-08 19:33 | 42.30148 | 19.31155 | 2967 ft | 204 kts | 199° |
| 2026-05-08 19:34 | 42.28970 | 19.30191 | 2714 ft | 195 kts | 223° |
| 2026-05-08 19:34 | 42.28216 | 19.28745 | 2248 ft | 190 kts | 247° |
| 2026-05-08 19:34 | 42.28040 | 19.27031 | 1770 ft | 183 kts | 277° |
| 2026-05-08 19:34 | 42.28571 | 19.25517 | 1284 ft | 179 kts | 313° |
| 2026-05-08 19:35 | 42.29570 | 19.24718 | 1164 ft | 162 kts | 344° |
| 2026-05-08 19:35 | 42.30625 | 19.24645 | 992 ft | 148 kts | 5° |
| 2026-05-08 19:35 | 42.31634 | 19.24749 | 792 ft | 143 kts | 5° |
| 2026-05-08 19:35 | 42.32537 | 19.25213 | 748 ft | 141 kts | 39° |
| 2026-05-08 19:36 | 42.33290 | 19.26065 | 735 ft | 141 kts | 41° |
| 2026-05-08 19:36 | 42.34032 | 19.26930 | 712 ft | 141 kts | 40° |
| 2026-05-08 19:36 | 42.34782 | 19.27777 | 731 ft | 140 kts | 39° |
| 2026-05-08 19:36 | 42.35526 | 19.28629 | 743 ft | 140 kts | 41° |
| 2026-05-08 19:37 | 42.36269 | 19.29480 | 751 ft | 140 kts | 40° |
| 2026-05-08 19:37 | 42.37037 | 19.30289 | 757 ft | 141 kts | 27° |
| 2026-05-08 19:37 | 42.37987 | 19.30548 | 759 ft | 139 kts | 5° |
| 2026-05-08 19:37 | 42.38948 | 19.30635 | 757 ft | 138 kts | 5° |
| 2026-05-08 19:38 | 42.39897 | 19.30509 | 763 ft | 139 kts | 336° |
| 2026-05-08 19:38 | 42.40492 | 19.29541 | 750 ft | 140 kts | 283° |
| 2026-05-08 19:38 | 42.40527 | 19.28233 | 763 ft | 140 kts | 269° |
| 2026-05-08 19:38 | 42.40424 | 19.26929 | 768 ft | 141 kts | 246° |
| 2026-05-08 19:39 | 42.39740 | 19.25986 | 649 ft | 142 kts | 212° |
| 2026-05-08 19:39 | 42.38832 | 19.25542 | 540 ft | 142 kts | 189° |
| 2026-05-08 19:39 | 42.37852 | 19.25385 | 320 ft | 141 kts | 184° |
| 2026-05-08 19:39 | 42.36883 | 19.25283 | 119 ft | 139 kts | 185° |
| 2026-05-08 19:40 | 42.36114 | 19.25205 | 107 ft | 77 kts | 184° |
| 2026-05-08 19:40 | 42.35645 | 19.25156 | 106 ft | 59 kts | 184° |
| 2026-05-08 19:40 | 42.35284 | 19.25120 | 111 ft | 46 kts | 184° |
| 2026-05-08 19:40 | 42.35002 | 19.25091 | 109 ft | 34 kts | 184° |
| 2026-05-08 19:41 | 42.34854 | 19.25071 | 110 ft | 15 kts | 206° |
| 2026-05-08 19:41 | 42.34844 | 19.24974 | 109 ft | 12 kts | 274° |
| 2026-05-08 19:41 | 42.34853 | 19.24856 | 104 ft | 9 kts | 289° |
| 2026-05-08 19:41 | 42.34908 | 19.24837 | 104 ft | 10 kts | 3° |
| 2026-05-08 19:42 | 42.34978 | 19.24845 | 105 ft | 11 kts | 5° |
| 2026-05-08 19:42 | 42.35061 | 19.24854 | 103 ft | 13 kts | 4° |
| 2026-05-08 19:42 | 42.35165 | 19.24864 | 102 ft | 16 kts | 4° |
| 2026-05-08 19:42 | 42.35281 | 19.24876 | 104 ft | 17 kts | 4° |
| 2026-05-08 19:43 | 42.35402 | 19.24888 | 106 ft | 16 kts | 4° |
| 2026-05-08 19:43 | 42.35519 | 19.24900 | 106 ft | 18 kts | 4° |
| 2026-05-08 19:43 | 42.35651 | 19.24914 | 107 ft | 20 kts | 4° |
| 2026-05-08 19:43 | 42.35793 | 19.24928 | 107 ft | 21 kts | 4° |
| 2026-05-08 19:44 | 42.35947 | 19.24944 | 108 ft | 23 kts | 4° |
| 2026-05-08 19:44 | 42.36113 | 19.24960 | 106 ft | 23 kts | 4° |
| 2026-05-08 19:44 | 42.36268 | 19.24976 | 109 ft | 21 kts | 4° |
| 2026-05-08 19:44 | 42.36410 | 19.24991 | 109 ft | 19 kts | 4° |
| 2026-05-08 19:45 | 42.36511 | 19.25003 | 109 ft | 13 kts | 5° |
| 2026-05-08 19:45 | 42.36597 | 19.25011 | 108 ft | 8 kts | 4° |
| 2026-05-08 19:45 | 42.36634 | 19.24979 | 110 ft | 8 kts | 282° |
| 2026-05-08 19:45 | 42.36636 | 19.24876 | 106 ft | 13 kts | 276° |
| 2026-05-08 19:46 | 42.36697 | 19.24828 | 106 ft | 9 kts | 6° |
| 2026-05-08 19:46 | 42.36726 | 19.24829 | 106 ft | 2 kts | 340° |
| 2026-05-08 19:46 | 42.36736 | 19.24774 | 106 ft | 3 kts | 274° |
| 2026-05-08 19:47 | 42.36741 | 19.24759 | 106 ft | 1 kts | 310° |
| 2026-05-08 19:47 | 42.36746 | 19.24752 | 106 ft | 1 kts | 313° |
| 2026-05-08 19:47 | 42.36747 | 19.24751 | 106 ft | 0 kts | 313° |